Time;durP1;ratioP1;P1;durP2;ratioP2;P2;SDS_P1;SDS_P2;PMS_P1;PMS_P2;Temp;Humidity;BMP_temperature;BMP_pressure;BME280_temperature;BME280_humidity;BME280_pressure;Samples;Min_cycle;Max_cycle;Signal;HPM_P1;HPM_P2
2020/12/11 00:00:12;;;;;;;5.90;2.05;;;;;;;6.00;95.36;94205.06;5106115;28;20038;-69
2020/12/11 00:02:38;;;;;;;7.00;1.98;;;;;;;5.93;95.30;94184.41;5106121;28;20067;-69
2020/12/11 00:05:05;;;;;;;12.48;5.30;;;;;;;5.99;94.66;94203.47;5106444;28;20043;-69
2020/12/11 00:07:39;;;;;;;21.65;8.93;;;;;;;5.84;95.32;94202.00;5105249;28;20044;-69
2020/12/11 00:10:11;;;;;;;30.42;10.57;;;;;;;5.67;96.78;94206.97;5105682;28;20039;-69
2020/12/11 00:12:38;;;;;;;34.25;11.75;;;;;;;5.55;97.80;94199.13;5105069;28;20074;-69
2020/12/11 00:15:06;;;;;;;32.00;9.10;;;;;;;5.51;98.62;94203.16;5105344;28;20043;-69
2020/12/11 00:17:33;;;;;;;35.38;10.63;;;;;;;5.47;99.21;94209.75;5106557;28;20031;-69
2020/12/11 00:19:59;;;;;;;44.13;12.23;;;;;;;5.44;99.52;94207.59;5105257;28;20040;-69
2020/12/11 00:22:25;;;;;;;29.45;9.10;;;;;;;5.38;100.00;94215.41;5106712;28;20040;-69
2020/12/11 00:24:52;;;;;;;25.40;7.93;;;;;;;5.34;100.00;94217.63;5106612;28;20034;-69
2020/12/11 00:27:19;;;;;;;17.10;7.53;;;;;;;5.11;100.00;94208.69;5106732;28;20046;-69
2020/12/11 00:29:46;;;;;;;16.75;7.15;;;;;;;5.07;100.00;94215.25;5106699;28;20051;-69
2020/12/11 00:32:12;;;;;;;13.82;8.57;;;;;;;4.95;100.00;94214.38;5106620;28;20108;-69
2020/12/11 00:34:39;;;;;;;15.60;8.35;;;;;;;4.89;100.00;94220.38;5106515;28;20085;-69
2020/12/11 00:37:07;;;;;;;15.65;7.75;;;;;;;4.84;100.00;94227.97;5106811;28;20046;-68
2020/12/11 00:39:33;;;;;;;15.23;7.72;;;;;;;4.80;100.00;94227.59;5105577;28;22714;-68
2020/12/11 00:42:00;;;;;;;13.98;7.68;;;;;;;4.85;100.00;94229.56;5105922;28;20122;-69
2020/12/11 00:44:27;;;;;;;14.93;8.00;;;;;;;4.82;100.00;94235.13;5086883;28;20068;-69
2020/12/11 00:46:55;;;;;;;15.68;8.38;;;;;;;4.79;100.00;94237.13;5105383;28;20114;-69
2020/12/11 00:49:23;;;;;;;26.15;11.13;;;;;;;4.94;100.00;94228.28;5106559;28;20089;-69
2020/12/11 00:51:55;;;;;;;34.40;13.63;;;;;;;5.07;100.00;94233.34;5109121;28;20046;-69
2020/12/11 00:54:24;;;;;;;25.33;11.05;;;;;;;4.95;100.00;94229.84;5108231;28;20504;-69
2020/12/11 00:56:51;;;;;;;17.00;9.05;;;;;;;4.92;100.00;94230.28;5110280;28;20397;-69
2020/12/11 00:59:18;;;;;;;11.15;7.00;;;;;;;4.86;100.00;94225.94;5110200;28;20032;-68
2020/12/11 01:01:44;;;;;;;9.40;5.20;;;;;;;4.69;100.00;94208.41;5109987;28;20538;-69
2020/12/11 01:04:11;;;;;;;9.32;3.95;;;;;;;4.81;100.00;94223.22;5110021;28;20401;-69
2020/12/11 01:06:37;;;;;;;7.40;4.22;;;;;;;4.71;100.00;94224.47;5110007;28;20040;-69
2020/12/11 01:09:05;;;;;;;8.82;4.10;;;;;;;4.65;100.00;94227.91;5109673;28;20488;-69
2020/12/11 01:11:31;;;;;;;5.78;3.42;;;;;;;4.67;100.00;94222.53;5109884;27;20127;-68
2020/12/11 01:13:58;;;;;;;7.28;3.70;;;;;;;4.88;100.00;94226.53;5109786;28;20042;-69
2020/12/11 01:16:25;;;;;;;8.07;3.47;;;;;;;5.10;100.00;94227.75;5109251;28;20046;-67
2020/12/11 01:18:54;;;;;;;7.03;3.10;;;;;;;5.20;100.00;94239.41;5109602;28;20043;-67
2020/12/11 01:21:22;;;;;;;7.57;3.28;;;;;;;5.08;100.00;94224.59;5109358;28;20127;-67
2020/12/11 01:23:48;;;;;;;5.68;3.50;;;;;;;5.19;100.00;94245.56;5109402;28;20051;-66
2020/12/11 01:26:14;;;;;;;5.50;3.13;;;;;;;5.34;100.00;94238.28;5109518;28;20039;-67
2020/12/11 01:28:40;;;;;;;7.05;3.30;;;;;;;5.45;100.00;94214.34;5109375;27;20035;-67
2020/12/11 01:31:07;;;;;;;7.50;2.75;;;;;;;5.65;100.00;94234.78;5108059;28;20028;-67
2020/12/11 01:33:33;;;;;;;4.65;2.78;;;;;;;5.59;100.00;94219.38;5107926;28;20488;-66
2020/12/11 01:35:59;;;;;;;4.97;2.40;;;;;;;5.49;100.00;94220.66;5109182;28;20108;-67
2020/12/11 01:38:26;;;;;;;3.28;2.03;;;;;;;5.43;100.00;94216.34;5109337;28;20522;-69
2020/12/11 01:40:52;;;;;;;6.55;2.10;;;;;;;5.22;100.00;94220.13;5109009;28;20467;-69
2020/12/11 01:43:20;;;;;;;4.50;2.47;;;;;;;4.90;100.00;94216.81;5108937;28;20028;-69
2020/12/11 01:45:47;;;;;;;7.30;2.78;;;;;;;4.76;100.00;94216.91;5109094;28;20446;-69
2020/12/11 01:48:14;;;;;;;5.22;3.00;;;;;;;4.65;100.00;94211.63;5107460;28;20050;-69
2020/12/11 01:50:41;;;;;;;4.63;3.10;;;;;;;4.71;100.00;94209.00;5108847;28;20043;-69
2020/12/11 01:53:09;;;;;;;5.97;3.70;;;;;;;4.75;100.00;94194.69;5107870;28;20771;-69
2020/12/11 01:55:39;;;;;;;8.10;3.40;;;;;;;4.89;100.00;94205.69;5107995;28;20047;-67
2020/12/11 01:58:18;;;;;;;11.63;2.83;;;;;;;4.77;100.00;94203.00;5108715;28;20664;-67
2020/12/11 02:00:46;;;;;;;7.28;3.55;;;;;;;4.64;100.00;94203.09;5108631;28;20059;-66
2020/12/11 02:03:14;;;;;;;6.50;3.65;;;;;;;4.55;100.00;94194.03;5106288;28;20052;-66
2020/12/11 02:05:40;;;;;;;6.70;4.28;;;;;;;4.40;100.00;94192.53;5107462;28;20097;-67
2020/12/11 02:08:07;;;;;;;5.70;3.97;;;;;;;4.55;100.00;94194.03;5108811;27;20063;-67
2020/12/11 02:10:33;;;;;;;11.88;7.55;;;;;;;4.55;100.00;94183.72;5108382;28;20036;-67
2020/12/11 02:13:09;;;;;;;13.25;6.10;;;;;;;4.78;100.00;94206.38;5108750;28;20572;-67
2020/12/11 02:15:35;;;;;;;13.68;6.10;;;;;;;4.72;100.00;94195.09;5107287;28;20049;-67
2020/12/11 02:18:03;;;;;;;9.45;5.82;;;;;;;4.64;100.00;94187.59;5108513;28;20044;-67
2020/12/11 02:20:30;;;;;;;9.20;5.05;;;;;;;4.64;100.00;94187.59;5108422;28;20378;-67
2020/12/11 02:22:56;;;;;;;7.03;5.25;;;;;;;4.72;100.00;94195.09;5108011;27;20059;-67
2020/12/11 02:25:23;;;;;;;7.85;5.72;;;;;;;4.66;100.00;94188.19;5106738;28;20040;-67
2020/12/11 02:27:49;;;;;;;12.25;6.32;;;;;;;4.72;100.00;94205.41;5108414;28;20104;-67
2020/12/11 02:30:17;;;;;;;8.50;6.03;;;;;;;4.70;100.00;94197.09;5107962;27;20115;-68
2020/12/11 02:32:44;;;;;;;23.13;14.20;;;;;;;4.82;100.00;94199.00;5106937;28;20112;-67
2020/12/11 02:35:12;;;;;;;13.40;7.55;;;;;;;4.86;100.00;94195.00;5107180;28;20038;-68
2020/12/11 02:37:38;;;;;;;11.85;6.88;;;;;;;4.97;100.00;94202.06;5107870;28;20038;-68
2020/12/11 02:40:06;;;;;;;11.80;7.18;;;;;;;5.13;100.00;94201.53;5107160;28;20052;-67
2020/12/11 02:42:33;;;;;;;7.93;4.95;;;;;;;5.23;100.00;94210.59;5105452;28;20054;-68
2020/12/11 02:44:59;;;;;;;10.13;5.65;;;;;;;5.20;100.00;94213.59;5107959;28;20035;-68
2020/12/11 02:47:26;;;;;;;13.77;9.30;;;;;;;4.91;100.00;94218.38;5106736;28;20036;-67
2020/12/11 02:49:52;;;;;;;14.45;8.95;;;;;;;4.86;100.00;94210.47;5107894;28;20463;-68
2020/12/11 02:52:19;;;;;;;17.80;9.35;;;;;;;4.77;100.00;94202.19;5107420;28;20488;-68
2020/12/11 02:54:46;;;;;;;10.75;6.18;;;;;;;4.91;100.00;94202.91;5108014;28;20073;-69
2020/12/11 02:57:13;;;;;;;10.15;5.75;;;;;;;4.90;100.00;94211.66;5107922;28;20538;-69
2020/12/11 02:59:39;;;;;;;8.65;4.57;;;;;;;4.95;100.00;94216.94;5107643;28;20039;-68
2020/12/11 03:02:05;;;;;;;7.05;4.22;;;;;;;4.98;100.00;94213.97;5107633;28;20054;-68
2020/12/11 03:04:32;;;;;;;7.15;4.95;;;;;;;5.02;100.00;94215.09;5107275;28;20036;-68
2020/12/11 03:06:59;;;;;;;7.50;4.38;;;;;;;5.29;100.00;94220.03;5107284;28;20512;-68
2020/12/11 03:09:25;;;;;;;5.20;3.58;;;;;;;5.47;100.00;94222.66;5107515;28;20043;-68
2020/12/11 03:11:51;;;;;;;6.50;3.47;;;;;;;5.64;100.00;94227.28;5107638;28;20053;-68
2020/12/11 03:14:18;;;;;;;4.03;3.25;;;;;;;5.24;100.00;94223.28;5105943;27;20059;-69
2020/12/11 03:16:44;;;;;;;6.88;3.47;;;;;;;5.08;100.00;94219.44;5106354;28;20043;-68
2020/12/11 03:19:11;;;;;;;6.03;4.10;;;;;;;5.17;100.00;94228.50;5106145;28;20039;-68
2020/12/11 03:21:37;;;;;;;6.85;4.65;;;;;;;5.35;100.00;94232.91;5107403;28;20036;-69
2020/12/11 03:24:03;;;;;;;5.43;3.92;;;;;;;5.50;100.00;94232.56;5107349;28;20039;-68
2020/12/11 03:26:30;;;;;;;5.97;3.83;;;;;;;5.53;100.00;94226.97;5107625;28;20455;-68
2020/12/11 03:28:56;;;;;;;5.57;3.17;;;;;;;5.63;100.00;94230.84;5107207;28;20127;-68
2020/12/11 03:31:22;;;;;;;5.95;2.92;;;;;;;5.46;100.00;94226.25;5107352;28;20100;-68
2020/12/11 03:33:49;;;;;;;4.10;2.75;;;;;;;5.55;100.00;94230.13;5106126;28;20478;-68
2020/12/11 03:36:19;;;;;;;5.25;3.10;;;;;;;5.59;100.00;94229.72;5106314;28;20489;-68
2020/12/11 03:38:48;;;;;;;6.65;2.78;;;;;;;5.49;100.00;94236.16;5105035;28;20048;-67
2020/12/11 03:41:15;;;;;;;5.45;2.97;;;;;;;5.58;100.00;94233.28;5107430;28;20051;-68
2020/12/11 03:43:42;;;;;;;7.10;4.47;;;;;;;5.61;100.00;94238.03;5106341;28;20047;-67
2020/12/11 03:46:08;;;;;;;6.63;4.00;;;;;;;5.70;99.90;94241.91;5106738;28;20039;-67
2020/12/11 03:48:35;;;;;;;9.30;5.38;;;;;;;5.69;99.67;94240.31;5105555;28;20031;-67
2020/12/11 03:51:01;;;;;;;11.63;7.22;;;;;;;5.63;99.54;94236.03;5107214;28;20735;-67
2020/12/11 03:53:28;;;;;;;20.13;9.45;;;;;;;5.71;99.20;94253.84;5105693;28;20055;-68
2020/12/11 03:55:57;;;;;;;15.82;8.50;;;;;;;5.73;98.98;94257.00;5105851;28;20039;-67
2020/12/11 03:58:23;;;;;;;9.65;5.60;;;;;;;5.74;98.80;94253.41;5105002;28;20044;-68
2020/12/11 04:00:50;;;;;;;8.25;4.88;;;;;;;5.72;98.63;94245.06;5106961;28;20077;-68
2020/12/11 04:03:16;;;;;;;9.63;5.22;;;;;;;5.84;98.37;94264.03;5106615;28;20036;-67
2020/12/11 04:05:42;;;;;;;9.52;5.10;;;;;;;5.88;98.32;94259.22;5107254;28;20043;-67
2020/12/11 04:08:08;;;;;;;14.45;6.53;;;;;;;5.91;98.22;94259.59;5107120;28;20032;-68
2020/12/11 04:10:35;;;;;;;13.48;7.30;;;;;;;5.92;97.66;94256.00;5107032;28;20374;-68
2020/12/11 04:13:01;;;;;;;19.90;8.52;;;;;;;5.86;97.78;94259.44;5106816;28;20043;-68
2020/12/11 04:15:27;;;;;;;16.70;8.32;;;;;;;5.73;97.63;94252.63;5105511;28;20036;-68
2020/12/11 04:17:53;;;;;;;11.63;6.10;;;;;;;5.84;97.78;94268.41;5106781;28;20035;-68
2020/12/11 04:20:21;;;;;;;9.30;6.38;;;;;;;5.87;97.65;94268.78;5106885;28;20061;-69
2020/12/11 04:22:47;;;;;;;15.63;7.55;;;;;;;5.86;97.77;94267.19;5106846;28;20036;-68
2020/12/11 04:25:13;;;;;;;12.38;6.72;;;;;;;5.88;97.85;94280.69;5108040;28;20036;-68
2020/12/11 04:27:40;;;;;;;10.35;5.82;;;;;;;5.81;97.86;94290.28;5109381;28;20048;-68
2020/12/11 04:30:06;;;;;;;10.75;6.75;;;;;;;5.90;97.92;94288.22;5109565;28;20070;-68
2020/12/11 04:32:33;;;;;;;20.70;9.25;;;;;;;5.84;97.44;94278.75;5110614;28;20040;-68
2020/12/11 04:34:59;;;;;;;16.85;6.63;;;;;;;5.89;97.38;94295.19;5110383;28;20039;-67
2020/12/11 04:37:25;;;;;;;11.50;5.45;;;;;;;5.94;97.57;94291.94;5110700;28;20499;-68
2020/12/11 04:39:51;;;;;;;16.15;7.57;;;;;;;5.97;97.26;94298.53;5110604;28;20401;-67
2020/12/11 04:42:18;;;;;;;20.25;8.82;;;;;;;5.87;97.39;94289.47;5110360;28;20047;-67
2020/12/11 04:44:44;;;;;;;14.27;6.13;;;;;;;5.89;97.37;94281.50;5110461;28;20054;-67
2020/12/11 04:47:12;;;;;;;10.43;6.00;;;;;;;5.99;97.21;94296.53;5110371;27;20146;-68
2020/12/11 04:49:40;;;;;;;13.40;7.60;;;;;;;5.90;96.95;94289.00;5109057;28;20105;-67
2020/12/11 04:52:06;;;;;;;12.55;7.05;;;;;;;5.93;97.06;94288.59;5110036;28;20047;-67
2020/12/11 04:54:37;;;;;;;17.10;7.57;;;;;;;5.90;97.28;94294.19;5110460;28;20055;-66
2020/12/11 04:57:09;;;;;;;15.35;7.05;;;;;;;5.88;97.36;94300.56;5110297;28;20048;-67
2020/12/11 04:59:36;;;;;;;10.30;6.40;;;;;;;5.84;97.62;94289.09;5110004;28;20036;-67
2020/12/11 05:02:11;;;;;;;12.52;5.60;;;;;;;5.93;97.63;94303.31;5107871;28;20511;-67
2020/12/11 05:04:38;;;;;;;14.02;7.75;;;;;;;5.84;97.75;94305.38;5109818;28;20035;-67
2020/12/11 05:07:05;;;;;;;49.55;30.55;;;;;;;5.67;98.02;94306.94;5109826;28;20047;-68
2020/12/11 05:09:32;;;;;;;48.28;30.70;;;;;;;5.35;100.00;94301.84;5109867;28;20046;-67
2020/12/11 05:11:58;;;;;;;30.65;17.45;;;;;;;5.12;100.00;94298.03;5109776;28;20496;-67
2020/12/11 05:14:34;;;;;;;16.05;8.68;;;;;;;4.85;100.00;94291.47;5109900;28;20049;-67
2020/12/11 05:17:03;;;;;;;13.23;7.95;;;;;;;4.73;100.00;94292.13;5108625;28;20046;-67
2020/12/11 05:19:32;;;;;;;19.13;12.38;;;;;;;4.66;100.00;94288.00;5109830;28;20031;-67
2020/12/11 05:22:09;;;;;;;25.60;16.85;;;;;;;4.71;100.00;94286.38;5109117;28;20039;-67
2020/12/11 05:24:46;;;;;;;33.78;20.70;;;;;;;4.66;100.00;94291.38;5109345;28;20040;-67
2020/12/11 05:27:29;;;;;;;29.40;17.98;;;;;;;4.43;100.00;94293.66;5108566;28;20040;-68
2020/12/11 05:29:58;;;;;;;36.35;23.77;;;;;;;4.40;100.00;94295.66;5108979;28;20085;-69
2020/12/11 05:32:48;;;;;;;70.03;42.65;;;;;;;4.42;100.00;94299.84;5107985;28;20043;-69
2020/12/11 05:35:18;;;;;;;69.05;46.00;;;;;;;4.48;100.00;94309.31;5106754;28;20040;-69
2020/12/11 05:37:48;;;;;;;37.13;25.50;;;;;;;4.44;100.00;94310.72;5108191;28;20051;-69
2020/12/11 05:40:26;;;;;;;62.80;45.88;;;;;;;4.52;100.00;94302.75;5108386;28;20067;-69
2020/12/11 05:43:19;;;;;;;64.15;36.83;;;;;;;4.57;100.00;94305.50;5106644;28;20047;-69
2020/12/11 05:45:53;;;;;;;94.40;52.70;;;;;;;4.73;100.00;94310.19;5107455;28;20039;-67
2020/12/11 05:48:22;;;;;;;81.05;24.92;;;;;;;4.92;100.00;94318.03;5107005;28;20028;-67
2020/12/11 05:50:49;;;;;;;114.70;37.28;;;;;;;4.80;100.00;94317.88;5109183;28;20063;-67
2020/12/11 05:53:16;;;;;;;110.50;44.65;;;;;;;4.71;100.00;94290.75;5109011;28;20118;-68
2020/12/11 05:55:43;;;;;;;179.10;75.03;;;;;;;4.65;100.00;94322.56;5106552;28;20048;-67
2020/12/11 05:58:11;;;;;;;215.90;95.93;;;;;;;4.74;100.00;94337.56;5108818;28;20067;-67
2020/12/11 06:00:41;;;;;;;111.03;46.65;;;;;;;4.76;100.00;94345.91;5108607;28;20040;-68
2020/12/11 06:03:08;;;;;;;65.53;34.10;;;;;;;4.77;100.00;94347.50;5108789;28;20059;-69
2020/12/11 06:05:40;;;;;;;46.10;25.48;;;;;;;4.88;100.00;94358.13;5108594;28;20119;-69
2020/12/11 06:08:11;;;;;;;26.05;14.52;;;;;;;4.81;100.00;94334.16;5107263;28;20043;-70
2020/12/11 06:10:41;;;;;;;40.15;19.25;;;;;;;4.92;100.00;94349.00;5108521;28;20122;-69
2020/12/11 06:13:08;;;;;;;57.47;31.27;;;;;;;4.87;100.00;94348.81;5104471;28;20484;-71
2020/12/11 06:15:44;;;;;;;46.58;28.42;;;;;;;4.96;100.00;94361.25;5105860;28;20131;-70
2020/12/11 06:18:21;;;;;;;48.38;26.75;;;;;;;5.03;100.00;94361.25;5106809;28;20039;-69
2020/12/11 06:20:52;;;;;;;57.15;27.15;;;;;;;5.12;100.00;94369.53;5106006;28;20377;-70
2020/12/11 06:23:22;;;;;;;61.45;31.45;;;;;;;4.92;100.00;94374.81;5107045;28;20036;-70
2020/12/11 06:26:03;;;;;;;80.45;27.55;;;;;;;4.92;100.00;94369.66;5106534;28;20036;-69
2020/12/11 06:28:35;;;;;;;27.33;16.42;;;;;;;5.11;100.00;94379.06;5108315;28;20621;-69
2020/12/11 06:31:13;;;;;;;60.20;31.55;;;;;;;5.12;100.00;94379.84;5108058;28;20059;-69
2020/12/11 06:33:45;;;;;;;43.92;18.55;;;;;;;5.07;100.00;94383.03;5106788;28;20046;-70
2020/12/11 06:36:12;;;;;;;32.10;16.35;;;;;;;5.07;100.00;94367.56;5107171;28;20051;-69
2020/12/11 06:38:41;;;;;;;39.15;18.85;;;;;;;5.08;100.00;94374.31;5107093;28;20063;-69
2020/12/11 06:41:09;;;;;;;50.03;27.83;;;;;;;5.19;100.00;94374.66;5108237;28;20043;-69
2020/12/11 06:43:43;;;;;;;62.08;28.15;;;;;;;5.29;100.00;94374.97;5107784;28;20416;-69
2020/12/11 06:46:16;;;;;;;77.43;34.40;;;;;;;5.43;100.00;94366.13;5090035;28;20126;-69
2020/12/11 06:49:09;;;;;;;89.35;33.28;;;;;;;5.50;100.00;94374.63;5104627;28;20045;-69
2020/12/11 06:51:58;;;;;;;102.10;33.17;;;;;;;5.44;100.00;94372.91;5107571;28;20504;-72
2020/12/11 06:54:28;;;;;;;55.90;22.45;;;;;;;5.49;100.00;94367.91;5106907;28;20454;-69
2020/12/11 06:56:56;;;;;;;37.75;16.58;;;;;;;5.59;100.00;94364.03;5107628;28;20488;-69
2020/12/11 06:59:28;;;;;;;28.40;14.07;;;;;;;5.55;100.00;94343.78;5107600;28;20039;-69
2020/12/11 07:02:04;;;;;;;13.90;9.18;;;;;;;5.51;100.00;94368.47;5105110;28;20062;-69
2020/12/11 07:04:43;;;;;;;19.33;13.10;;;;;;;5.50;100.00;94377.22;5105002;28;20075;-70
2020/12/11 07:07:10;;;;;;;20.02;11.45;;;;;;;5.55;100.00;94374.78;5105272;28;20067;-70
2020/12/11 07:09:47;;;;;;;23.30;17.77;;;;;;;5.75;100.00;94366.09;5107610;28;20043;-69
2020/12/11 07:12:15;;;;;;;46.95;25.88;;;;;;;5.73;100.00;94383.63;5107018;28;20131;-70
2020/12/11 07:14:45;;;;;;;42.60;24.15;;;;;;;5.70;100.00;94387.38;5107686;28;20040;-69
2020/12/11 07:17:41;;;;;;;27.65;17.85;;;;;;;5.62;100.00;94386.84;5105903;28;21925;-69
2020/12/11 07:20:08;;;;;;;38.25;21.17;;;;;;;5.50;100.00;94374.63;5105003;28;20043;-70
2020/12/11 07:22:35;;;;;;;82.68;44.80;;;;;;;5.58;100.00;94372.78;5107698;28;20043;-70
2020/12/11 07:25:03;;;;;;;91.95;50.05;;;;;;;5.74;100.00;94382.59;5107459;28;20046;-69
2020/12/11 07:27:29;;;;;;;36.75;20.92;;;;;;;5.75;100.00;94363.50;5106183;28;20118;-70
2020/12/11 07:29:55;;;;;;;27.30;17.33;;;;;;;5.94;100.00;94385.00;5106230;28;20043;-71
2020/12/11 07:32:22;;;;;;;26.13;16.55;;;;;;;5.80;99.78;94355.91;5105233;28;20039;-70
2020/12/11 07:34:49;;;;;;;27.63;17.52;;;;;;;6.00;99.94;94386.78;5106118;28;20054;-70
2020/12/11 07:37:16;;;;;;;31.63;18.83;;;;;;;6.02;99.76;94378.81;5107147;28;20043;-71
2020/12/11 07:39:43;;;;;;;27.50;18.60;;;;;;;6.19;99.17;94390.19;5107262;28;20119;-70
2020/12/11 07:42:09;;;;;;;33.72;20.27;;;;;;;6.25;98.91;94388.56;5107009;28;20043;-70
2020/12/11 07:44:38;;;;;;;28.77;19.23;;;;;;;6.28;98.68;94401.84;5104595;28;20509;-70
2020/12/11 07:47:13;;;;;;;24.40;16.33;;;;;;;6.20;98.61;94396.94;5104341;28;20069;-70
2020/12/11 07:49:45;;;;;;;34.65;20.50;;;;;;;6.26;98.60;94395.28;5104648;28;20046;-70
2020/12/11 07:52:22;;;;;;;46.67;26.25;;;;;;;6.21;100.00;94393.38;5105707;28;20028;-70
2020/12/11 07:54:48;;;;;;;43.00;25.40;;;;;;;6.17;100.00;94397.34;5104848;28;20545;-71
2020/12/11 07:57:17;;;;;;;32.30;21.65;;;;;;;6.18;99.52;94367.91;5106623;28;20118;-70
2020/12/11 07:59:59;;;;;;;34.92;21.52;;;;;;;6.36;99.37;94394.81;5109448;28;20047;-70
2020/12/11 08:02:27;;;;;;;42.60;28.35;;;;;;;6.26;99.68;94390.91;5110739;28;20122;-69
2020/12/11 08:04:54;;;;;;;155.25;77.80;;;;;;;6.36;98.32;94395.59;5091590;28;20047;-70
2020/12/11 08:07:29;;;;;;;45.72;25.38;;;;;;;6.44;97.35;94381.56;5110522;28;20054;-69
2020/12/11 08:10:12;;;;;;;36.28;22.85;;;;;;;6.65;96.01;94399.25;5109906;28;20054;-70
2020/12/11 08:12:39;;;;;;;36.40;23.63;;;;;;;6.79;96.57;94391.31;5111290;28;20119;-70
2020/12/11 08:15:07;;;;;;;37.97;23.25;;;;;;;6.94;96.14;94391.75;5110903;27;20492;-68
2020/12/11 08:17:34;;;;;;;55.67;29.80;;;;;;;7.01;94.52;94394.25;5110121;28;20439;-68
2020/12/11 08:20:06;;;;;;;54.08;28.42;;;;;;;7.02;94.50;94394.03;5109941;28;20108;-68
2020/12/11 08:22:42;;;;;;;50.85;28.52;;;;;;;7.08;94.23;94372.44;5110313;28;20042;-68
2020/12/11 08:25:19;;;;;;;31.73;19.52;;;;;;;7.30;91.99;94397.84;5109918;28;20040;-68
2020/12/11 08:27:46;;;;;;;40.92;23.23;;;;;;;7.20;91.54;94379.44;5110125;28;20050;-70
2020/12/11 08:30:16;;;;;;;30.10;19.85;;;;;;;7.23;92.36;94390.16;5111112;28;20048;-70
2020/12/11 08:32:43;;;;;;;46.97;33.50;;;;;;;7.35;91.87;94397.97;5110574;28;20035;-70
2020/12/11 08:35:13;;;;;;;38.05;22.92;;;;;;;7.59;92.38;94398.81;5108849;28;20040;-69
2020/12/11 08:37:54;;;;;;;39.58;22.33;;;;;;;7.62;90.55;94382.84;5108754;28;20512;-70
2020/12/11 08:40:21;;;;;;;37.88;21.88;;;;;;;7.84;91.26;94395.25;5107954;28;20043;-70
2020/12/11 08:46:29;;;;;;;37.40;22.60;;;;;;;7.69;88.30;94382.75;5109249;28;20043;-70
2020/12/11 08:51:37;;;;;;;40.35;23.17;;;;;;;7.42;89.47;94377.94;5107797;28;20075;-70
2020/12/11 08:54:07;;;;;;;42.78;26.92;;;;;;;7.54;89.07;94390.13;5110279;28;20043;-69
2020/12/11 08:56:44;;;;;;;32.38;21.40;;;;;;;7.64;88.68;94400.75;5110329;28;20062;-70
2020/12/11 08:59:11;;;;;;;38.00;24.00;;;;;;;7.72;88.62;94384.88;5109152;28;20062;-71
2020/12/11 09:01:41;;;;;;;42.30;24.88;;;;;;;7.72;88.05;94395.22;5108270;28;20116;-69
2020/12/11 09:04:08;;;;;;;43.95;29.88;;;;;;;7.96;88.87;94397.84;5108207;28;20048;-70
2020/12/11 09:06:35;;;;;;;28.88;18.65;;;;;;;7.92;86.48;94396.72;5110331;27;20492;-69
2020/12/11 09:09:02;;;;;;;34.35;19.48;;;;;;;8.05;87.13;94393.94;5108877;28;20062;-70
2020/12/11 09:11:30;;;;;;;32.28;21.05;;;;;;;8.13;86.68;94388.38;5108991;28;20043;-70
2020/12/11 09:13:57;;;;;;;33.25;21.77;;;;;;;8.33;86.72;94392.44;5109916;28;20066;-70
2020/12/11 09:16:23;;;;;;;34.97;22.15;;;;;;;8.41;83.72;94381.72;5110051;28;20039;-70
2020/12/11 09:18:49;;;;;;;31.95;20.58;;;;;;;8.63;83.86;94386.34;5109819;28;20039;-70
2020/12/11 09:21:16;;;;;;;27.05;19.13;;;;;;;8.84;82.48;94388.34;5109992;28;20035;-70
2020/12/11 09:23:43;;;;;;;31.75;20.05;;;;;;;9.09;82.05;94390.63;5109890;28;20039;-70
2020/12/11 09:26:09;;;;;;;31.15;19.13;;;;;;;9.38;81.22;94382.78;5109826;28;20036;-70
2020/12/11 09:28:37;;;;;;;28.27;19.60;;;;;;;9.38;79.85;94378.41;5108377;28;20040;-70
2020/12/11 09:31:03;;;;;;;34.30;20.73;;;;;;;9.57;78.13;94375.56;5108655;28;20460;-70
2020/12/11 09:33:35;;;;;;;26.95;18.42;;;;;;;9.54;79.30;94365.63;5108220;28;20070;-70
2020/12/11 09:36:03;;;;;;;41.90;26.42;;;;;;;9.43;78.48;94369.09;5109626;28;20039;-69
2020/12/11 09:38:30;;;;;;;27.40;17.38;;;;;;;9.75;75.70;94346.75;5109345;28;20035;-70
2020/12/11 09:41:04;;;;;;;27.17;17.08;;;;;;;9.79;77.95;94351.47;5107814;28;20096;-69
2020/12/11 09:56:22;;;;;;;;;;;;;;;11.02;72.96;94334.81;5109856;28;20390;-68
2020/12/11 09:58:52;;;;;;;24.05;17.35;;;;;;;11.05;73.47;94332.50;5109010;28;19928;-70
2020/12/11 10:01:29;;;;;;;28.13;19.75;;;;;;;10.86;73.63;94308.63;5108204;28;20032;-70
2020/12/11 10:03:56;;;;;;;21.98;16.15;;;;;;;11.39;70.99;94337.53;5109066;28;20097;-70
2020/12/11 10:06:26;;;;;;;21.55;15.63;;;;;;;11.43;69.77;94330.78;5108104;28;20050;-70
2020/12/11 10:08:53;;;;;;;26.35;17.70;;;;;;;11.61;71.36;94334.84;5106568;28;20124;-68
2020/12/11 10:11:20;;;;;;;23.85;16.05;;;;;;;11.75;69.40;94334.41;5106077;28;20148;-69
2020/12/11 10:13:49;;;;;;;26.58;17.30;;;;;;;11.69;68.71;94325.78;5105876;28;20408;-70
2020/12/11 10:16:16;;;;;;;27.65;17.73;;;;;;;11.64;68.39;94323.91;5108032;28;20039;-70
2020/12/11 10:18:45;;;;;;;26.50;17.20;;;;;;;11.65;69.02;94325.50;5108637;28;20055;-70
2020/12/11 10:21:12;;;;;;;23.98;14.70;;;;;;;11.63;68.63;94327.56;5108740;28;20496;-69
2020/12/11 10:23:38;;;;;;;22.83;16.73;;;;;;;11.35;70.16;94330.47;5106540;28;20488;-71
2020/12/11 10:26:05;;;;;;;28.52;18.83;;;;;;;11.48;70.48;94325.59;5108619;28;20035;-69
2020/12/11 10:28:32;;;;;;;22.02;15.60;;;;;;;11.36;70.11;94318.97;5107340;28;20048;-71
2020/12/11 10:30:59;;;;;;;22.52;15.07;;;;;;;11.08;69.46;94310.41;5108623;28;20067;-70
2020/12/11 10:33:25;;;;;;;20.98;14.40;;;;;;;10.76;70.77;94318.91;5107399;28;20496;-70
2020/12/11 10:35:51;;;;;;;18.10;12.90;;;;;;;10.57;71.04;94309.84;5107359;28;20028;-71
2020/12/11 10:38:19;;;;;;;31.33;17.80;;;;;;;10.95;70.83;94310.78;5108643;28;20036;-69
2020/12/11 10:40:45;;;;;;;19.88;12.65;;;;;;;11.19;69.66;94300.84;5108162;28;20527;-70
2020/12/11 10:43:12;;;;;;;23.95;14.32;;;;;;;11.27;68.86;94303.81;5106500;28;20043;-70
2020/12/11 10:45:38;;;;;;;27.13;17.20;;;;;;;10.72;72.79;94302.22;5108151;28;20112;-71
2020/12/11 10:48:06;;;;;;;23.85;16.83;;;;;;;10.77;71.75;94293.66;5107876;28;20040;-69
2020/12/11 10:50:33;;;;;;;29.52;19.13;;;;;;;10.55;72.15;94301.50;5105773;28;20032;-69
2020/12/11 10:53:00;;;;;;;26.75;18.88;;;;;;;10.32;73.50;94298.13;5106690;28;20118;-70
2020/12/11 10:55:26;;;;;;;30.45;18.77;;;;;;;10.35;72.95;94279.41;5106574;28;20112;-70
2020/12/11 10:57:53;;;;;;;26.67;17.60;;;;;;;10.67;73.17;94289.13;5106640;28;20055;-70
2020/12/11 11:00:20;;;;;;;26.77;18.02;;;;;;;10.84;71.69;94279.44;5106258;28;20146;-70
2020/12/11 11:02:46;;;;;;;26.55;18.13;;;;;;;11.00;70.94;94287.38;5107258;28;20094;-70
2020/12/11 11:05:13;;;;;;;37.72;23.38;;;;;;;10.79;70.39;94291.63;5106518;28;20116;-71
2020/12/11 11:07:40;;;;;;;52.78;33.40;;;;;;;10.43;72.70;94281.59;5107532;28;20039;-71
2020/12/11 11:12:41;;;;;;;45.53;27.63;;;;;;;10.22;73.64;94277.13;5106856;28;20046;-70
2020/12/11 11:23:02;;;;;;;46.10;27.40;;;;;;;9.86;75.66;94274.06;5107557;28;20454;-70
2020/12/11 11:28:00;;;;;;;42.47;25.13;;;;;;;9.83;77.25;94269.34;5107412;28;20706;-70
2020/12/11 11:30:28;;;;;;;39.53;23.35;;;;;;;10.07;74.35;94270.72;5104918;28;20054;-70
2020/12/11 11:32:55;;;;;;;39.05;24.50;;;;;;;10.12;73.60;94262.97;5106441;28;20059;-69
2020/12/11 11:35:22;;;;;;;36.72;23.77;;;;;;;10.21;73.52;94265.94;5105789;28;20477;-69
2020/12/11 11:37:51;;;;;;;44.97;26.80;;;;;;;10.13;75.60;94254.13;5106347;28;20036;-70
2020/12/11 11:40:17;;;;;;;42.22;26.60;;;;;;;10.39;74.58;94256.28;5105571;28;20043;-70
2020/12/11 11:42:43;;;;;;;62.65;27.65;;;;;;;10.34;74.28;94254.41;5107625;28;20039;-70
2020/12/11 11:45:23;;;;;;;36.38;22.60;;;;;;;10.51;73.20;94249.94;5105376;28;20032;-70
2020/12/11 11:47:53;;;;;;;37.83;22.02;;;;;;;10.70;72.48;94247.75;5106899;28;20038;-70
2020/12/11 11:53:21;;;;;;;43.55;26.35;;;;;;;10.32;74.89;94251.28;5106940;28;20054;-70
2020/12/11 11:55:48;;;;;;;41.75;27.00;;;;;;;9.71;76.46;94241.63;5107332;28;20044;-69
2020/12/11 11:58:15;;;;;;;36.63;23.60;;;;;;;10.13;74.82;94238.50;5106025;28;20043;-70
2020/12/11 12:00:42;;;;;;;44.35;27.13;;;;;;;9.67;76.75;94245.75;5106094;28;20118;-69
2020/12/11 12:03:08;;;;;;;35.15;23.88;;;;;;;9.52;79.05;94232.50;5106736;28;20038;-70
2020/12/11 12:05:34;;;;;;;34.95;23.20;;;;;;;10.02;76.64;94226.41;5103968;28;20040;-70